X

Important NEWS



New Hub Active

Miami is our new hub! Old members can request transfer via hr@dlxairways.net

Thank you very much and have nice flight.


Deluxe Airways.

X

Tours



Hello again, we created one nice test tour for all pilots to attend. also this is ment to be testing of our tour system

Available Tours

If you find some issues please inform us.

Thank you very much and have nice flight.


Deluxe Airways.

 METAR AND TAF INFORMATION
ArrayMETAR FOR KSEA
107812078 5 KSEA 231253Z 12003KT 10SM OVC230 08/05 A3013 RMK AO2 SLP211 T00830050 KSEA 2019-03-23T12:53:00Z 47.45 -122.32 8.3 5.0 120 3 10.0 30.129921 1021.1 TRUE VFR METAR 136.0 KSEA 231153Z 12004KT 10SM FEW030 BKN230 08/05 A3012 RMK AO2 SLP207 60000 70001 T00780050 10100 20072 51006 KSEA 2019-03-23T11:53:00Z 47.45 -122.32 7.8 5.0 120 4 10.0 30.121063 1020.7 TRUE VFR 0.6 10.0 7.2 0.005 0.01 METAR 136.0

 AIRPORT MAP

 RUNWAY INFORMATION
Runway 16C Runway length 9426 ft Runway width 150 ft
Runway elevation 430 ft Runway displaced threshold 0 ft Runway heading 180
Runway 34C Runway length 9426 ft Runway width 150 ft
Runway elevation 363 ft Runway displaced threshold 0 ft Runway heading 0
Runway 16L Runway length 11900 ft Runway width 150 ft
Runway elevation 432 ft Runway displaced threshold 0 ft Runway heading 180
Runway 34R Runway length 11900 ft Runway width 150 ft
Runway elevation 347 ft Runway displaced threshold 0 ft Runway heading 360
Runway 16R Runway length 9426 ft Runway width 150 ft
Runway elevation 430 ft Runway displaced threshold 0 ft Runway heading 180
Runway 34L Runway length 9426 ft Runway width 150 ft
Runway elevation 363 ft Runway displaced threshold 0 ft Runway heading 360

 AIRPORT FREQUENCIES
Type A/D Name APP/DEP Frequency 119.2 MHZ
Type ATIS Name ATIS Frequency 118 MHZ
Type CLD Name CLNC DEL Frequency 128 MHZ
Type GND Name GND Frequency 121.7 MHZ
Type TWR Name TWR Frequency 119.9 MHZ
Type UNIC Name UNICOM Frequency 122.95 MHZ

 AIRPORT NEAR NAVIGATION AIDS
Type NDB Name Dondo Frequency 224 KHZ
Type VORTAC Name Seattle Frequency 116800 KHZ
Type NDB Name Parkk Frequency 281 KHZ



Powered by Virtual Airlines Manager [v2.6.2]

Template code change by DeluxeAir